This is the latest recevied weather packets stored in our database for station/object HK4LRM-13. If no packets are shown the sender has not sent any weather packets the latest 10 day(s).
| Time | Temp. | Humidity | Pressure | Rain* | Wind** | Luminosity | Snow |
|---|---|---|---|---|---|---|---|
| 1778061482 | 18.33° C | 94% | 1016 hPa | 0 mm | - | - | - |
| 1778060941 | 17.78° C | 95% | 1016 hPa | 0 mm | - | - | - |
| 1778060401 | 18.33° C | 94% | 1015 hPa | 0 mm | - | - | - |
| 1778059860 | 18.33° C | 94% | 1015 hPa | 0 mm | - | - | - |
| 1778059319 | 18.33° C | 95% | 1015 hPa | 0 mm | - | - | - |
| 1778058778 | 18.33° C | 98% | 1015 hPa | 0 mm | - | - | - |
| 1778058235 | 18.33° C | 98% | 1015 hPa | 0 mm | - | - | - |
| 1778057694 | 18.33° C | 97% | 1015 hPa | 0 mm | - | - | - |
| 1778057154 | 18.33° C | 97% | 1015 hPa | 0 mm | - | - | - |
| 1778056613 | 18.33° C | 97% | 1015 hPa | 0 mm | - | - | - |
| 1778056073 | 18.33° C | 96% | 1015 hPa | 0 mm | - | - | - |
| 1778055532 | 18.89° C | 94% | 1015 hPa | 0 mm | - | - | - |
| 1778054991 | 19.44° C | 91% | 1015 hPa | 0 mm | - | - | - |
| 1778054451 | 19.44° C | 93% | 1015 hPa | 0 mm | - | - | - |
| 1778053909 | 19.44° C | 93% | 1015 hPa | 0 mm | - | - | - |
| 1778053369 | 19.44° C | 94% | 1016 hPa | 0 mm | - | - | - |
| 1778052828 | 19.44° C | 96% | 1016 hPa | 0 mm | - | - | - |
| 1778052287 | 19.44° C | 10% | - | 0 mm | - | - | - |
| 1778051745 | 19.44° C | 10% | - | 0 mm | - | - | - |
| 1778051205 | 20.56° C | 90% | 1016 hPa | 0 mm | - | - | - |
| 1778050664 | 20.56° C | 90% | 1016 hPa | 0 mm | - | - | - |
| 1778050122 | 20.56° C | 90% | 1016 hPa | 0 mm | - | - | - |
| 1778049575 | 20.56° C | 90% | 1016 hPa | 0 mm | - | - | - |
| 1778049035 | 20.56° C | 90% | 1016 hPa | 0 mm | - | - | - |
| 1778048494 | 20.56° C | 90% | 1016 hPa | 0 mm | - | - | - |
* Rain latest hour (hover to see other rain measurements)
** Current wind speed in m/s (hover to see current wind gust speed)